createdAt,value
2022-09-07T00:03:31.916Z,18.21
2022-09-07T00:09:04.480Z,18.20
2022-09-07T00:14:35.467Z,18.17
2022-09-07T00:20:08.331Z,18.14
2022-09-07T00:25:40.249Z,18.12
2022-09-07T00:31:18.442Z,18.07
2022-09-07T00:36:49.558Z,18.05
2022-09-07T00:42:22.156Z,18.02
2022-09-07T00:48:03.307Z,17.98
2022-09-07T00:53:41.567Z,17.94
2022-09-07T00:59:14.823Z,17.91
2022-09-07T01:04:52.122Z,17.89
2022-09-07T01:10:26.921Z,17.87
2022-09-07T01:16:43.117Z,17.84
2022-09-07T01:22:42.037Z,17.80
2022-09-07T01:28:25.281Z,17.77
2022-09-07T01:34:08.359Z,17.75
2022-09-07T01:39:57.259Z,17.71
2022-09-07T01:45:33.506Z,17.68
2022-09-07T01:51:05.206Z,17.65
2022-09-07T01:56:45.602Z,17.62
2022-09-07T02:02:20.726Z,17.60
2022-09-07T02:07:58.062Z,17.58
2022-09-07T02:13:36.245Z,17.55
2022-09-07T02:19:11.234Z,17.52
2022-09-07T02:24:46.044Z,17.50
2022-09-07T02:30:17.398Z,17.47
2022-09-07T02:35:48.479Z,17.44
2022-09-07T02:41:38.005Z,17.39
2022-09-07T02:47:46.392Z,17.35
2022-09-07T02:53:45.896Z,17.35
2022-09-07T02:59:29.891Z,17.31
2022-09-07T03:05:03.725Z,17.29
2022-09-07T03:10:35.039Z,17.27
2022-09-07T03:16:06.193Z,17.23
2022-09-07T03:21:37.223Z,17.19
2022-09-07T03:27:12.489Z,17.17
2022-09-07T03:32:43.864Z,17.11
2022-09-07T03:38:15.053Z,17.08
2022-09-07T03:43:46.247Z,17.05
2022-09-07T03:49:17.712Z,17.02
2022-09-07T03:54:48.644Z,16.99
2022-09-07T04:00:19.828Z,16.97
2022-09-07T04:05:51.256Z,16.95
2022-09-07T04:11:22.406Z,16.92
2022-09-07T04:16:53.479Z,16.89
2022-09-07T04:22:24.839Z,16.90
2022-09-07T04:27:57.075Z,16.89
2022-09-07T04:33:28.302Z,16.84
2022-09-07T04:39:02.325Z,16.82
2022-09-07T04:44:33.836Z,16.78
2022-09-07T04:50:05.436Z,16.77
2022-09-07T04:55:36.515Z,16.76
2022-09-07T05:01:09.375Z,16.74
2022-09-07T05:06:41.300Z,16.73
2022-09-07T05:12:12.269Z,16.72
2022-09-07T05:17:43.160Z,16.72
2022-09-07T05:23:14.671Z,16.71
2022-09-07T05:28:46.123Z,16.67
2022-09-07T05:34:33.427Z,16.67
2022-09-07T05:40:06.069Z,16.65
2022-09-07T05:45:37.647Z,16.65
2022-09-07T05:51:09.644Z,16.64
2022-09-07T05:56:40.514Z,16.64
2022-09-07T06:02:15.207Z,16.65
2022-09-07T06:07:49.496Z,16.68
2022-09-07T06:13:20.760Z,16.73
2022-09-07T06:18:52.180Z,16.77
2022-09-07T06:24:23.446Z,16.82
2022-09-07T06:29:54.952Z,16.90
2022-09-07T06:35:26.171Z,16.98
2022-09-07T06:58:27.475Z,17.39
2022-09-07T07:03:58.529Z,17.50
2022-09-07T07:09:29.618Z,17.59
2022-09-07T07:15:00.556Z,17.67
2022-09-07T07:20:32.286Z,17.78
2022-09-07T07:26:04.900Z,17.86
2022-09-07T07:31:36.515Z,17.98
2022-09-07T07:37:08.066Z,18.10
2022-09-07T07:42:40.812Z,18.23
2022-09-07T07:48:13.244Z,18.40
2022-09-07T07:53:45.650Z,18.53
2022-09-07T07:59:16.577Z,18.66
2022-09-07T08:04:47.542Z,18.78
2022-09-07T08:10:22.109Z,18.93
2022-09-07T08:16:04.114Z,19.10
2022-09-07T08:21:40.184Z,19.22
2022-09-07T08:27:11.716Z,19.30
2022-09-07T08:32:44.352Z,19.39
2022-09-07T08:38:20.442Z,19.48
2022-09-07T08:44:02.164Z,19.56
2022-09-07T08:49:44.782Z,19.69
2022-09-07T08:55:57.486Z,19.79
2022-09-07T09:01:36.023Z,19.93
2022-09-07T09:07:25.138Z,20.03
2022-09-07T09:13:11.628Z,20.19
2022-09-07T09:18:45.816Z,20.30
2022-09-07T09:24:19.482Z,20.41
2022-09-07T09:29:50.594Z,20.56
2022-09-07T09:35:32.822Z,20.65
2022-09-07T09:41:06.560Z,20.78
2022-09-07T09:46:38.123Z,20.89
2022-09-07T09:52:29.799Z,20.94
2022-09-07T10:04:24.847Z,21.05
2022-09-07T10:09:56.965Z,20.99
2022-09-07T10:15:40.401Z,20.93
2022-09-07T10:21:29.155Z,20.88
2022-09-07T10:27:00.254Z,20.85
2022-09-07T10:32:45.438Z,20.79
2022-09-07T10:38:23.063Z,20.75
2022-09-07T10:43:54.942Z,20.71
2022-09-07T10:49:34.227Z,20.76
2022-09-07T10:55:26.517Z,20.88
2022-09-07T11:01:12.777Z,20.96
2022-09-07T11:06:55.647Z,20.93
2022-09-07T11:12:35.026Z,20.92
2022-09-07T11:18:18.938Z,21.01
2022-09-07T11:23:58.788Z,21.19
2022-09-07T11:29:47.448Z,21.39
2022-09-07T11:35:47.819Z,21.52
2022-09-07T11:41:43.284Z,21.68
2022-09-07T11:48:03.575Z,21.74
2022-09-07T11:53:37.933Z,21.76
2022-09-07T11:59:40.326Z,21.86
2022-09-07T12:05:49.046Z,21.98
2022-09-07T12:11:40.422Z,22.01
2022-09-07T12:17:20.690Z,22.08
2022-09-07T12:23:05.363Z,22.07
2022-09-07T12:28:36.700Z,22.00
2022-09-07T12:34:32.466Z,21.95
2022-09-07T12:40:30.477Z,21.93
2022-09-07T12:46:02.153Z,21.88
2022-09-07T12:58:00.523Z,21.98
2022-09-07T13:03:59.753Z,22.03
2022-09-07T13:09:39.247Z,22.01
2022-09-07T13:15:38.869Z,22.03
2022-09-07T13:21:11.042Z,22.02
2022-09-07T13:26:53.777Z,22.01
2022-09-07T13:38:25.556Z,21.98
2022-09-07T13:44:01.770Z,22.00
2022-09-07T13:49:36.090Z,22.11
2022-09-07T13:56:03.484Z,22.22
2022-09-07T14:01:35.683Z,22.12
2022-09-07T14:07:20.342Z,22.07
2022-09-07T14:13:06.462Z,22.02
2022-09-07T14:18:40.114Z,22.01
2022-09-07T14:24:27.093Z,21.98
2022-09-07T14:30:17.047Z,21.95
2022-09-07T14:35:49.124Z,21.99
2022-09-07T14:41:20.680Z,22.01
2022-09-07T14:46:55.357Z,22.05
2022-09-07T14:53:33.404Z,22.04
2022-09-07T14:58:32.694Z,22.02
2022-09-07T15:04:03.933Z,22.02
2022-09-07T15:09:37.071Z,22.00
2022-09-07T15:15:28.311Z,21.97
2022-09-07T15:20:59.524Z,21.95
2022-09-07T15:32:29.023Z,21.91
2022-09-07T15:38:02.403Z,21.93
2022-09-07T15:43:37.976Z,21.94
2022-09-07T15:49:12.471Z,21.91
2022-09-07T15:54:43.834Z,21.88
2022-09-07T16:00:15.162Z,21.85
2022-09-07T16:05:46.809Z,21.83
2022-09-07T16:11:23.971Z,21.80
2022-09-07T16:28:43.364Z,21.81
2022-09-07T16:34:18.549Z,21.81
2022-09-07T16:39:49.854Z,21.81
2022-09-07T16:51:13.674Z,21.79
2022-09-07T16:56:45.475Z,21.76
2022-09-07T17:02:18.257Z,21.74
2022-09-07T17:07:49.763Z,21.71
2022-09-07T17:13:22.632Z,21.68
2022-09-07T17:24:48.729Z,21.60
2022-09-07T17:30:20.804Z,21.56
2022-09-07T17:35:53.098Z,21.51
2022-09-07T17:41:26.944Z,21.47
2022-09-07T17:46:58.090Z,21.42
2022-09-07T17:52:29.321Z,21.37
2022-09-07T17:58:04.451Z,21.29
2022-09-07T18:03:36.220Z,21.22
2022-09-07T18:09:07.404Z,21.21
2022-09-07T18:14:38.443Z,21.18
2022-09-07T18:20:10.080Z,21.15
2022-09-07T18:25:43.223Z,21.11
2022-09-07T18:31:15.222Z,21.06
2022-09-07T18:36:47.603Z,21.01
2022-09-07T18:42:22.390Z,20.96
2022-09-07T18:47:54.735Z,20.94
2022-09-07T18:53:26.156Z,20.90
2022-09-07T18:58:58.537Z,20.87
2022-09-07T19:05:49.484Z,20.82
2022-09-07T19:10:21.705Z,20.79
2022-09-07T19:15:54.729Z,20.76
2022-09-07T19:21:33.057Z,20.73
2022-09-07T19:27:04.898Z,20.67
2022-09-07T19:32:36.282Z,20.64
2022-09-07T19:38:07.728Z,20.61
2022-09-07T19:43:39.215Z,20.57
2022-09-07T19:49:12.417Z,20.54
2022-09-07T19:54:44.398Z,20.51
2022-09-07T20:00:15.783Z,20.49
2022-09-07T20:05:47.727Z,20.47
2022-09-07T20:11:19.302Z,20.42
2022-09-07T20:16:50.751Z,20.37
2022-09-07T20:22:22.642Z,20.32
2022-09-07T20:27:53.875Z,20.28
2022-09-07T20:33:24.922Z,20.25
2022-09-07T20:38:56.805Z,20.22
2022-09-07T20:44:27.830Z,20.18
2022-09-07T20:49:59.079Z,20.14
2022-09-07T20:55:30.316Z,20.10
2022-09-07T21:01:01.656Z,20.06
2022-09-07T21:06:33.360Z,20.04
2022-09-07T21:12:05.637Z,20.02
2022-09-07T21:17:36.995Z,19.97
2022-09-07T21:23:08.796Z,19.95
2022-09-07T21:28:40.825Z,19.92
2022-09-07T21:34:11.956Z,19.87
2022-09-07T21:39:43.238Z,19.84
2022-09-07T21:45:14.976Z,19.82
2022-09-07T21:50:47.029Z,19.79
2022-09-07T21:56:18.014Z,19.74
2022-09-07T22:01:49.540Z,19.71
2022-09-07T22:07:20.734Z,19.70
2022-09-07T22:12:51.959Z,19.67
2022-09-07T22:18:23.008Z,19.64
2022-09-07T22:24:00.198Z,19.61
2022-09-07T22:29:31.543Z,19.58
2022-09-07T22:35:02.449Z,19.55
2022-09-07T22:40:33.365Z,19.53
2022-09-07T22:46:21.713Z,19.51
2022-09-07T22:51:52.832Z,19.50
2022-09-07T22:57:23.752Z,19.48
2022-09-07T23:02:54.718Z,19.44
2022-09-07T23:08:26.407Z,19.42
2022-09-07T23:13:59.747Z,19.39
2022-09-07T23:19:31.042Z,19.34
2022-09-07T23:25:02.376Z,19.33
2022-09-07T23:30:35.878Z,19.29
2022-09-07T23:36:08.304Z,19.26
2022-09-07T23:41:39.423Z,19.22
2022-09-07T23:47:10.551Z,19.21
2022-09-07T23:52:41.800Z,19.16
2022-09-07T23:58:13.259Z,19.13
